Time;durP1;ratioP1;P1;durP2;ratioP2;P2;SDS_P1;SDS_P2;PMS_P1;PMS_P2;Temp;Humidity;BMP_temperature;BMP_pressure;BME280_temperature;BME280_humidity;BME280_pressure;Samples;Min_cycle;Max_cycle;Signal;HPM_P1;HPM_P2
2022/11/30 06:56:56;;;;;;;7.40;5.00;;;;;;;;;;10512502;28;20455;-83
2022/11/30 07:01:58;;;;;;;7.10;4.90;;;;;;;;;;10512358;28;20044;-83
2022/11/30 07:06:59;;;;;;;9.23;6.97;;;;;;;;;;10513152;28;20504;-83
2022/11/30 07:12:01;;;;;;;10.02;7.50;;;;;;;;;;10512636;28;20087;-83
2022/11/30 07:17:03;;;;;;;7.93;6.32;;;;;;;;;;10513370;28;20045;-83
2022/11/30 07:22:04;;;;;;;8.10;6.10;;;;;;;;;;10515199;28;20023;-84
2022/11/30 07:27:05;;;;;;;;;;;;;;;;;;10513364;28;20082;-84
2022/11/30 07:32:06;;;;;;;8.10;6.60;;;;;;;;;;10512671;28;19966;-84
2022/11/30 07:37:07;;;;;;;8.23;6.35;;;;;;;;;;10513194;28;20025;-84
2022/11/30 07:42:08;;;;;;;;;;;;;;;;;;10511467;28;20059;-84
2022/11/30 08:08:17;;;;;;;10.80;7.97;;;;;;;;;;10312118;28;20051;-84
2022/11/30 08:13:21;;;;;;;13.98;9.45;;;;;;;;;;10312819;28;20500;-82
2022/11/30 08:18:22;;;;;;;15.02;10.57;;;;;;;;;;10308961;28;20122;-83
2022/11/30 08:23:23;;;;;;;90.70;53.72;;;;;;;;;;10308713;28;20034;-84
2022/11/30 08:34:02;;;;;;;55.55;37.15;;;;;;;;;;10311502;28;20114;-85
2022/11/30 08:39:19;;;;;;;53.17;37.28;;;;;;;;;;10308871;28;20035;-85
2022/11/30 08:50:00;;;;;;;67.43;44.25;;;;;;;;;;10313462;28;20024;-85
2022/11/30 08:55:19;;;;;;;68.28;45.35;;;;;;;;;;10313684;28;20043;-85
2022/11/30 09:06:11;;;;;;;60.92;41.53;;;;;;;;;;10343888;28;20038;-84
2022/11/30 09:17:19;;;;;;;47.78;33.90;;;;;;;;;;10321904;28;20047;-85
2022/11/30 09:22:20;;;;;;;43.03;30.10;;;;;;;;;;10309327;28;20027;-85
2022/11/30 09:27:36;;;;;;;42.35;29.67;;;;;;;;;;10307955;28;20500;-85
2022/11/30 09:32:40;;;;;;;40.03;29.65;;;;;;;;;;10312580;28;20035;-85
2022/11/30 09:37:42;;;;;;;41.33;29.52;;;;;;;;;;10307977;28;20027;-84
2022/11/30 09:42:59;;;;;;;42.33;29.42;;;;;;;;;;10292759;28;20043;-85
2022/11/30 09:48:30;;;;;;;39.08;27.70;;;;;;;;;;10311273;28;20493;-84
2022/11/30 09:53:42;;;;;;;41.28;27.20;;;;;;;;;;10324915;28;20039;-85
2022/11/30 09:59:21;;;;;;;34.42;24.50;;;;;;;;;;10306274;28;20035;-85
2022/11/30 10:04:42;;;;;;;33.40;24.08;;;;;;;;;;10303346;28;20489;-86
2022/11/30 10:10:08;;;;;;;30.13;21.80;;;;;;;;;;10302441;28;20481;-86
2022/11/30 10:15:22;;;;;;;26.98;19.45;;;;;;;;;;10303894;28;20513;-87
2022/11/30 10:26:43;;;;;;;25.58;18.65;;;;;;;;;;10303613;28;20034;-86
2022/11/30 10:37:43;;;;;;;21.33;15.82;;;;;;;;;;10254893;28;20039;-86
2022/11/30 10:54:48;;;;;;;20.42;14.77;;;;;;;;;;10336958;28;20117;-85
2022/11/30 11:00:21;;;;;;;18.02;13.93;;;;;;;;;;10221648;29;20024;-85
2022/11/30 11:05:36;;;;;;;16.33;13.13;;;;;;;;;;10255076;28;20042;-86
2022/11/30 11:11:05;;;;;;;19.48;13.80;;;;;;;;;;10325168;28;20037;-85
2022/11/30 11:16:25;;;;;;;15.93;12.32;;;;;;;;;;10316207;28;20104;-85
2022/11/30 11:27:41;;;;;;;14.32;11.63;;;;;;;;;;10305181;28;20043;-86
2022/11/30 11:33:13;;;;;;;15.10;11.38;;;;;;;;;;10309387;28;20038;-85
2022/11/30 11:38:34;;;;;;;14.73;11.30;;;;;;;;;;10310193;28;20027;-85
2022/11/30 11:43:38;;;;;;;;;;;;;;;;;;10322060;28;20118;-85
2022/11/30 11:48:41;;;;;;;12.93;10.05;;;;;;;;;;10325510;28;19921;-80
2022/11/30 11:54:08;;;;;;;13.68;10.52;;;;;;;;;;10345929;28;20466;-84
2022/11/30 11:59:58;;;;;;;11.68;9.73;;;;;;;;;;10347382;28;20083;-85
2022/11/30 12:05:07;;;;;;;12.25;10.45;;;;;;;;;;10336327;28;20042;-81
2022/11/30 12:10:27;;;;;;;11.93;10.05;;;;;;;;;;10312948;28;20421;-82
2022/11/30 12:15:53;;;;;;;11.00;9.52;;;;;;;;;;10310192;28;20045;-82
2022/11/30 12:21:04;;;;;;;11.85;9.30;;;;;;;;;;10310787;28;20174;-82
2022/11/30 12:26:25;;;;;;;9.98;8.60;;;;;;;;;;10316017;28;20047;-83
2022/11/30 12:31:32;;;;;;;12.10;9.25;;;;;;;;;;10309239;28;20043;-83
2022/11/30 12:36:36;;;;;;;11.70;9.02;;;;;;;;;;10311216;28;20045;-82
2022/11/30 12:41:51;;;;;;;12.10;9.10;;;;;;;;;;10313250;28;20053;-83
2022/11/30 12:53:10;;;;;;;10.50;7.97;;;;;;;;;;10325146;28;20074;-82
2022/11/30 12:58:14;;;;;;;9.43;7.22;;;;;;;;;;10332813;28;20061;-83
2022/11/30 13:03:40;;;;;;;10.77;8.48;;;;;;;;;;10314333;28;20576;-83
2022/11/30 13:09:01;;;;;;;10.15;7.80;;;;;;;;;;10311548;28;20039;-82
2022/11/30 13:14:25;;;;;;;9.85;8.23;;;;;;;;;;10312559;28;20038;-85
2022/11/30 13:19:51;;;;;;;10.50;8.82;;;;;;;;;;10314118;28;20061;-83
2022/11/30 13:25:03;;;;;;;10.82;8.30;;;;;;;;;;10314870;28;20102;-83
2022/11/30 13:30:32;;;;;;;9.68;7.50;;;;;;;;;;10311049;28;20050;-82
2022/11/30 13:35:56;;;;;;;10.88;7.60;;;;;;;;;;10306781;28;20513;-83
2022/11/30 13:41:30;;;;;;;12.35;7.70;;;;;;;;;;10307977;28;20062;-84
2022/11/30 13:46:56;;;;;;;11.38;9.18;;;;;;;;;;10352558;22;20030;-86
2022/11/30 13:52:24;;;;;;;10.57;8.52;;;;;;;;;;10377546;28;20074;-86
2022/11/30 13:58:03;;;;;;;11.13;9.13;;;;;;;;;;10343561;28;20408;-87
2022/11/30 15:57:21;;;;;;;11.95;8.77;;;;;;;;;;10438112;28;20057;-86
2022/11/30 16:02:27;;;;;;;12.90;8.40;;;;;;;;;;10424065;28;20118;-86
2022/11/30 16:08:10;;;;;;;12.23;8.68;;;;;;;;;;10425017;28;20060;-86
2022/11/30 16:13:13;;;;;;;10.85;8.45;;;;;;;;;;10349440;28;20049;-84
2022/11/30 16:18:39;;;;;;;11.50;9.20;;;;;;;;;;10415459;28;20401;-82
2022/11/30 16:23:56;;;;;;;11.88;8.95;;;;;;;;;;10427784;28;20483;-84
2022/11/30 16:29:07;;;;;;;10.50;8.57;;;;;;;;;;10417580;28;20120;-83
2022/11/30 16:34:11;;;;;;;11.65;8.45;;;;;;;;;;10433779;28;20033;-83
2022/11/30 16:39:16;;;;;;;11.60;8.60;;;;;;;;;;10435306;28;20518;-83
2022/11/30 16:44:24;;;;;;;10.35;8.38;;;;;;;;;;10435769;28;20153;-84
2022/11/30 16:49:26;;;;;;;11.00;8.52;;;;;;;;;;10422225;28;20132;-85
2022/11/30 16:54:27;;;;;;;9.55;7.97;;;;;;;;;;10419519;28;20052;-84
2022/11/30 16:59:28;;;;;;;9.82;8.15;;;;;;;;;;10422927;28;20029;-83
2022/11/30 17:04:29;;;;;;;10.68;9.07;;;;;;;;;;10448281;28;20049;-84
2022/11/30 17:10:03;;;;;;;8.90;6.97;;;;;;;;;;10446038;28;20041;-83
2022/11/30 17:15:35;;;;;;;9.10;7.60;;;;;;;;;;10467642;28;20045;-82
2022/11/30 17:20:54;;;;;;;8.82;6.90;;;;;;;;;;10451156;28;20077;-85
2022/11/30 17:25:56;;;;;;;8.50;6.97;;;;;;;;;;10426621;28;20029;-84
2022/11/30 17:31:04;;;;;;;11.57;8.63;;;;;;;;;;10426574;28;20111;-87
2022/11/30 18:27:52;;;;;;;8.25;7.07;;;;;;;;;;10425767;28;20471;-88
2022/11/30 19:53:19;;;;;;;8.82;7.50;;;;;;;;;;10437270;28;20049;-87
2022/11/30 19:58:20;;;;;;;8.52;7.18;;;;;;;;;;10447429;28;20431;-88
2022/11/30 20:03:21;;;;;;;7.38;6.15;;;;;;;;;;10439065;28;20053;-88
2022/11/30 20:08:22;;;;;;;7.68;6.43;;;;;;;;;;10435787;28;20038;-87
2022/11/30 20:13:23;;;;;;;;;;;;;;;;;;10439309;28;20045;-87
2022/11/30 20:18:24;;;;;;;7.80;6.25;;;;;;;;;;10438874;28;19915;-87
